Time;durP1;ratioP1;P1;durP2;ratioP2;P2;SDS_P1;SDS_P2;PMS_P1;PMS_P2;Temp;Humidity;BMP_temperature;BMP_pressure;BME280_temperature;BME280_humidity;BME280_pressure;Samples;Min_cycle;Max_cycle;Signal;HPM_P1;HPM_P2
2024/04/20 00:00:51;;;;;;;8.55;5.78;;;5.30;99.90;;;;;;6386319;22;20015;-84
2024/04/20 00:03:36;;;;;;;6.82;5.65;;;5.30;99.90;;;;;;6399374;22;20252;-84
2024/04/20 00:06:39;;;;;;;;;;;;;;;;;;;;;
2024/04/20 00:09:21;;;;;;;;;;;;;;;;;;;;;
2024/04/20 00:12:15;;;;;;;6.60;5.47;;;5.10;99.90;;;;;;6393962;22;19995;-85
2024/04/20 00:15:16;;;;;;;7.20;5.88;;;5.10;99.90;;;;;;6355215;22;20405;-84
2024/04/20 00:18:03;;;;;;;7.65;5.43;;;5.10;99.90;;;;;;6348940;22;20026;-84
2024/04/20 00:23:41;;;;;;;;;;;;;;;;;;;;;
2024/04/20 00:26:41;;;;;;;;;;;;;;;;;;;;;
2024/04/20 00:29:33;;;;;;;6.78;5.57;;;5.10;99.90;;;;;;6376550;22;20840;-84
2024/04/20 00:32:09;;;;;;;7.82;5.75;;;5.10;99.90;;;;;;6398762;22;20003;-84
2024/04/20 00:35:01;;;;;;;8.07;5.57;;;5.10;99.90;;;;;;6400706;22;20013;-84
2024/04/20 00:37:48;;;;;;;6.40;5.60;;;5.10;99.90;;;;;;6355091;22;20007;-85
2024/04/20 00:41:13;;;;;;;6.65;5.55;;;5.10;99.90;;;;;;6346345;22;19999;-84
2024/04/20 00:47:01;;;;;;;7.15;6.43;;;5.20;99.90;;;;;;6318874;22;20017;-85
2024/04/20 00:52:31;;;;;;;9.07;7.22;;;5.20;99.90;;;;;;6419527;22;20141;-84
2024/04/20 00:55:21;;;;;;;7.03;5.97;;;5.20;99.90;;;;;;6352338;22;20097;-84
2024/04/20 00:58:24;;;;;;;8.10;6.65;;;5.20;99.90;;;;;;6359380;22;20018;-84
2024/04/20 01:01:25;;;;;;;7.88;6.20;;;5.10;99.90;;;;;;6360435;22;20010;-84
2024/04/20 01:04:20;;;;;;;7.07;5.40;;;5.10;99.90;;;;;;6380602;22;20660;-84
2024/04/20 01:06:52;;;;;;;7.65;5.75;;;5.10;99.90;;;;;;6359755;22;20086;-85
2024/04/20 01:09:36;;;;;;;7.22;5.70;;;5.10;99.90;;;;;;6383617;22;20007;-84
2024/04/20 01:12:51;;;;;;;6.10;5.32;;;5.10;99.90;;;;;;6363505;22;20362;-84
2024/04/20 01:19:01;;;;;;;8.70;6.47;;;5.10;99.90;;;;;;6376959;22;19999;-84
2024/04/20 01:22:01;;;;;;;;;;;;;;;;;;;;;
2024/04/20 01:24:59;;;;;;;7.78;6.03;;;5.10;99.90;;;;;;6400402;22;20017;-84
2024/04/20 01:27:39;;;;;;;8.98;6.35;;;5.10;99.90;;;;;;6368574;22;20082;-84
2024/04/20 01:30:16;;;;;;;8.32;6.22;;;5.00;99.90;;;;;;6403450;22;20027;-84
2024/04/20 01:33:24;;;;;;;9.52;6.95;;;5.10;99.90;;;;;;6354228;22;20012;-84
2024/04/20 01:36:07;;;;;;;8.88;6.43;;;5.10;99.90;;;;;;6323054;22;20419;-83
2024/04/20 01:38:58;;;;;;;7.37;5.80;;;5.00;99.90;;;;;;6297198;22;20447;-84
2024/04/20 01:41:55;;;;;;;6.55;5.70;;;5.10;99.90;;;;;;6292709;22;20039;-84
2024/04/20 01:44:30;;;;;;;8.35;6.07;;;5.00;99.90;;;;;;6044997;23;20008;-85
2024/04/20 01:50:54;;;;;;;;;;;;;;;;;;;;;
2024/04/20 01:54:08;;;;;;;;;;;;;;;;;;;;;
2024/04/20 01:56:57;;;;;;;;;;;5.00;99.90;;;;;;6184293;23;20878;-84
2024/04/20 01:59:33;;;;;;;6.10;5.13;;;5.00;99.90;;;;;;6224479;23;19948;-85
2024/04/20 02:02:03;;;;;;;5.43;4.93;;;5.00;99.90;;;;;;6165667;23;20055;-84
2024/04/20 02:05:11;;;;;;;8.55;5.00;;;5.00;99.90;;;;;;6170547;23;20002;-84
2024/04/20 02:07:59;;;;;;;8.38;5.75;;;5.00;99.90;;;;;;6165324;23;20006;-84
2024/04/20 02:10:38;;;;;;;;;;;;;;;;;;;;;
2024/04/20 02:13:34;;;;;;;6.72;5.60;;;5.00;99.90;;;;;;6145379;23;20317;-84
2024/04/20 02:16:20;;;;;;;6.03;4.40;;;5.00;99.90;;;;;;6120925;22;20105;-84
2024/04/20 02:22:23;;;;;;;10.40;4.35;;;5.10;99.90;;;;;;6302735;22;20155;-84
2024/04/20 02:25:09;;;;;;;4.88;4.10;;;5.10;99.90;;;;;;6235256;22;19998;-84
2024/04/20 02:27:57;;;;;;;;;;;;;;;;;;;;;
2024/04/20 02:30:37;;;;;;;4.65;3.97;;;5.10;99.90;;;;;;6318506;22;20011;-84
2024/04/20 02:33:18;;;;;;;3.92;3.50;;;5.10;99.90;;;;;;6326183;22;20007;-84
2024/04/20 02:36:11;;;;;;;;;;;;;;;;;;;;;
2024/04/20 02:39:33;;;;;;;;;;;;;;;;;;;;;
2024/04/20 02:42:15;;;;;;;4.72;3.72;;;5.10;99.90;;;;;;6091912;23;21284;-85
2024/04/20 02:45:10;;;;;;;5.13;4.45;;;5.10;99.90;;;;;;6300553;22;19995;-85
2024/04/20 02:47:42;;;;;;;8.15;4.10;;;5.10;99.90;;;;;;6325672;22;20003;-84
2024/04/20 02:50:37;;;;;;;4.85;4.35;;;5.10;99.90;;;;;;6267086;22;20008;-84
2024/04/20 02:53:17;;;;;;;4.25;3.63;;;5.00;99.90;;;;;;6298778;22;20017;-84
2024/04/20 02:58:50;;;;;;;5.13;4.30;;;5.10;99.90;;;;;;6333815;22;20003;-84
2024/04/20 03:01:32;;;;;;;4.85;4.00;;;5.10;99.90;;;;;;6291672;22;20010;-84
2024/04/20 03:04:12;;;;;;;5.00;4.47;;;5.10;99.90;;;;;;6277519;22;20016;-84
2024/04/20 03:07:20;;;;;;;7.18;4.93;;;5.10;99.90;;;;;;6349262;22;20033;-84
2024/04/20 03:09:54;;;;;;;5.65;4.10;;;5.10;99.90;;;;;;6339140;22;20440;-84
2024/04/20 03:15:39;;;;;;;5.47;4.53;;;5.10;99.90;;;;;;6370945;22;20011;-84
2024/04/20 03:18:44;;;;;;;9.25;5.07;;;5.20;99.90;;;;;;6361033;22;20013;-84
2024/04/20 03:21:41;;;;;;;;;;;;;;;;;;;;;
2024/04/20 03:25:00;;;;;;;7.45;5.80;;;5.10;99.90;;;;;;6374004;22;20004;-84
2024/04/20 03:27:35;;;;;;;9.27;5.80;;;5.10;99.90;;;;;;6312305;22;20003;-85
2024/04/20 03:30:20;;;;;;;10.35;6.00;;;5.10;99.90;;;;;;6262028;22;20001;-84
2024/04/20 03:33:07;;;;;;;27.02;12.38;;;5.00;99.90;;;;;;6231946;22;20139;-84
2024/04/20 03:35:42;;;;;;;26.50;13.90;;;5.10;99.90;;;;;;6319424;22;20733;-84
2024/04/20 03:38:39;;;;;;;;;;;;;;;;;;;;;
2024/04/20 03:44:17;;;;;;;;;;;5.00;99.90;;;;;;6263818;22;20015;-84
2024/04/20 03:47:21;;;;;;;7.05;4.65;;;5.00;99.90;;;;;;6254610;22;19924;-84
2024/04/20 03:50:03;;;;;;;;;;;;;;;;;;;;;
2024/04/20 03:52:50;;;;;;;9.18;4.57;;;5.00;99.90;;;;;;6269454;22;19931;-84
2024/04/20 03:58:32;;;;;;;6.95;4.55;;;4.90;99.90;;;;;;6255748;22;20007;-84
2024/04/20 04:01:10;;;;;;;7.50;5.05;;;4.90;99.90;;;;;;6331967;22;20302;-85
2024/04/20 04:03:54;;;;;;;3.53;2.97;;;4.90;99.90;;;;;;6355674;22;20002;-84
2024/04/20 04:13:17;;;;;;;;;;;;;;;;;;;;;
2024/04/20 04:16:09;;;;;;;;;;;;;;;;;;;;;
2024/04/20 04:19:05;;;;;;;;;;;;;;;;;;;;;
2024/04/20 04:21:59;;;;;;;;;;;;;;;;;;;;;
2024/04/20 04:25:09;;;;;;;3.30;2.03;;;4.80;99.90;;;;;;6097197;23;20307;-85
2024/04/20 04:27:49;;;;;;;1.55;1.50;;;4.80;99.90;;;;;;6089418;23;20884;-85
2024/04/20 04:30:22;;;;;;;2.58;1.98;;;4.70;99.90;;;;;;6086214;23;20003;-84
2024/04/20 04:33:32;;;;;;;6.70;3.70;;;4.70;99.90;;;;;;6122265;23;20068;-84
2024/04/20 04:39:50;;;;;;;5.20;2.85;;;4.80;99.90;;;;;;6281976;22;20377;-84
2024/04/20 04:42:50;;;;;;;;;;;;;;;;;;;;;
2024/04/20 04:45:20;;;;;;;8.38;4.70;;;4.80;99.90;;;;;;6266948;22;20001;-85
2024/04/20 04:48:17;;;;;;;3.17;2.35;;;4.80;99.90;;;;;;6282894;22;20008;-85
2024/04/20 04:50:53;;;;;;;18.10;8.52;;;4.70;99.90;;;;;;6351831;22;20070;-84
2024/04/20 04:53:39;;;;;;;22.23;10.60;;;4.60;99.90;;;;;;6369376;22;20332;-84
2024/04/20 04:56:55;;;;;;;;;;;;;;;;;;;;;
2024/04/20 05:02:39;;;;;;;6.88;3.75;;;4.50;99.90;;;;;;6296689;22;20004;-85
2024/04/20 05:08:50;;;;;;;;;;;;;;;;;;;;;
2024/04/20 05:11:41;;;;;;;3.47;2.55;;;4.50;99.90;;;;;;6338359;22;21584;-84
2024/04/20 05:15:08;;;;;;;1.83;1.42;;;4.50;99.90;;;;;;6352284;22;20007;-85
2024/04/20 05:18:25;;;;;;;7.07;3.83;;;4.40;99.90;;;;;;6314746;22;20046;-84
2024/04/20 05:24:17;;;;;;;3.47;2.20;;;4.60;99.90;;;;;;6356831;22;20010;-85
2024/04/20 05:27:17;;;;;;;1.30;0.90;;;4.60;99.90;;;;;;6352707;22;20065;-84
2024/04/20 05:29:53;;;;;;;5.88;3.25;;;4.70;99.90;;;;;;6288742;22;20009;-85
2024/04/20 05:33:01;;;;;;;5.93;2.92;;;4.70;99.90;;;;;;6272445;22;20024;-84
2024/04/20 05:42:39;;;;;;;;;;;;;;;;;;;;;
2024/04/20 05:48:29;;;;;;;1.60;0.65;;;5.00;99.90;;;;;;6291753;22;20044;-84
2024/04/20 05:54:51;;;;;;;;;;;;;;;;;;;;;
2024/04/20 05:58:06;;;;;;;;;;;;;;;;;;;;;
2024/04/20 06:00:49;;;;;;;;;;;;;;;;;;;;;
2024/04/20 06:03:49;;;;;;;3.22;2.40;;;5.20;99.90;;;;;;6190698;22;20003;-85
2024/04/20 06:06:40;;;;;;;7.82;4.95;;;5.30;99.90;;;;;;6231829;22;20126;-85
2024/04/20 06:09:42;;;;;;;5.07;3.67;;;5.30;99.90;;;;;;6161819;22;20081;-85
2024/04/20 06:12:55;;;;;;;5.53;3.38;;;5.40;99.90;;;;;;6217464;22;20012;-85
2024/04/20 06:15:36;;;;;;;;;;;;;;;;;;;;;
2024/04/20 06:18:05;;;;;;;;;;;5.50;99.90;;;;;;6359532;22;19998;-85
2024/04/20 06:20:46;;;;;;;1.38;1.27;;;5.40;99.90;;;;;;6318900;22;19995;-85
2024/04/20 06:23:35;;;;;;;;;;;;;;;;;;;;;
2024/04/20 06:26:30;;;;;;;2.22;1.50;;;5.50;99.90;;;;;;6308316;22;20003;-85
2024/04/20 06:32:53;;;;;;;3.25;2.95;;;5.50;99.90;;;;;;6162140;23;20013;-85
2024/04/20 06:38:58;;;;;;;2.00;1.80;;;5.70;99.90;;;;;;6372002;22;20474;-85
2024/04/20 06:41:44;;;;;;;;;;;;;;;;;;;;;
2024/04/20 06:44:40;;;;;;;1.92;1.83;;;5.70;99.90;;;;;;6293013;22;20865;-85
2024/04/20 06:51:39;;;;;;;;;;;;;;;;;;;;;
2024/04/20 06:54:45;;;;;;;1.80;1.70;;;5.70;99.90;;;;;;6248844;22;20068;-85
2024/04/20 06:57:30;;;;;;;2.08;1.40;;;5.80;99.90;;;;;;6216488;22;20075;-85
2024/04/20 07:00:24;;;;;;;2.40;2.20;;;5.70;99.90;;;;;;6203836;23;20001;-85
2024/04/20 07:03:23;;;;;;;;;;;;;;;;;;;;;
2024/04/20 07:06:27;;;;;;;11.45;8.00;;;5.70;99.90;;;;;;6230051;22;19999;-85
2024/04/20 07:09:31;;;;;;;4.35;3.40;;;5.80;99.90;;;;;;6306796;22;20007;-85
2024/04/20 07:12:04;;;;;;;11.70;5.57;;;5.80;99.90;;;;;;6346753;22;19999;-85
2024/04/20 07:14:58;;;;;;;3.13;2.22;;;5.80;99.90;;;;;;6368879;22;19999;-85
2024/04/20 07:18:23;;;;;;;4.32;2.00;;;5.70;99.90;;;;;;6191393;22;20478;-85
2024/04/20 07:21:09;;;;;;;3.63;2.42;;;5.90;99.90;;;;;;6311932;22;20322;-85
2024/04/20 07:24:27;;;;;;;;;;;;;;;;;;;;;
2024/04/20 07:27:30;;;;;;;4.07;2.22;;;6.10;99.90;;;;;;6302878;22;21268;-85
2024/04/20 07:30:33;;;;;;;;;;;;;;;;;;;;;
2024/04/20 07:33:20;;;;;;;2.33;1.92;;;6.10;99.90;;;;;;6316940;22;20365;-85
2024/04/20 07:36:19;;;;;;;2.70;1.60;;;6.30;99.90;;;;;;6319923;22;19995;-85
2024/04/20 07:39:27;;;;;;;;;;;;;;;;;;;;;
2024/04/20 07:45:38;;;;;;;3.22;1.77;;;6.30;99.90;;;;;;6135574;23;20010;-85
2024/04/20 07:48:23;;;;;;;1.92;1.45;;;6.50;99.90;;;;;;6319954;22;19994;-85
2024/04/20 07:51:05;;;;;;;;;;;;;;;;;;;;;
2024/04/20 07:54:19;;;;;;;;;;;;;;;;;;;;;
2024/04/20 07:57:29;;;;;;;2.50;2.10;;;6.60;99.90;;;;;;6283584;22;21270;-84
2024/04/20 08:04:04;;;;;;;2.03;1.85;;;6.80;99.90;;;;;;6221252;22;20019;-85
2024/04/20 08:07:56;;;;;;;4.00;1.88;;;6.80;99.90;;;;;;6349864;22;20007;-85
2024/04/20 08:11:23;;;;;;;1.85;1.70;;;6.80;99.90;;;;;;6345887;22;20789;-85
2024/04/20 08:14:11;;;;;;;3.65;2.50;;;6.70;99.90;;;;;;6313859;22;20091;-85
2024/04/20 08:17:48;;;;;;;3.70;2.10;;;6.80;99.90;;;;;;6354027;22;20009;-85
2024/04/20 08:21:16;;;;;;;;;;;;;;;;;;;;;
2024/04/20 08:24:16;;;;;;;;;;;;;;;;;;;;;
2024/04/20 08:27:51;;;;;;;;;;;;;;;;;;;;;
2024/04/20 08:31:16;;;;;;;3.72;3.42;;;6.50;99.90;;;;;;5981326;23;20009;-85
2024/04/20 08:37:13;;;;;;;3.58;3.28;;;6.40;99.90;;;;;;6175550;23;20302;-85
2024/04/20 08:39:49;;;;;;;5.88;3.95;;;6.30;99.90;;;;;;6199280;23;20049;-85
2024/04/20 08:42:34;;;;;;;4.68;3.92;;;6.50;99.90;;;;;;6165951;23;19997;-85
2024/04/20 08:48:18;;;;;;;4.28;3.33;;;6.70;99.90;;;;;;6134409;22;20001;-85
2024/04/20 08:50:55;;;;;;;4.53;3.78;;;6.70;99.90;;;;;;6168576;22;20009;-85
2024/04/20 08:53:44;;;;;;;;;;;;;;;;;;;;;
2024/04/20 08:56:27;;;;;;;6.30;4.00;;;6.90;99.90;;;;;;6161398;23;21205;-85
2024/04/20 08:59:36;;;;;;;3.88;3.28;;;7.00;99.90;;;;;;6161762;22;20611;-85
2024/04/20 09:02:32;;;;;;;;;;;;;;;;;;;;;
2024/04/20 09:05:44;;;;;;;;;;;;;;;;;;;;;
2024/04/20 09:08:58;;;;;;;3.63;2.50;;;7.30;99.90;;;;;;6239996;22;20780;-85
2024/04/20 09:11:41;;;;;;;2.28;1.90;;;7.30;99.90;;;;;;6207330;23;20776;-85
2024/04/20 09:14:36;;;;;;;4.07;2.92;;;7.40;99.90;;;;;;6165740;23;20038;-85
2024/04/20 09:17:36;;;;;;;;;;;;;;;;;;;;;
2024/04/20 09:24:09;;;;;;;8.75;4.57;;;7.70;99.90;;;;;;6184104;22;20018;-85
2024/04/20 09:30:07;;;;;;;3.92;2.42;;;8.00;99.90;;;;;;6255644;22;20000;-85
2024/04/20 09:33:27;;;;;;;;;;;;;;;;;;;;;
2024/04/20 09:36:16;;;;;;;4.63;2.58;;;8.00;99.90;;;;;;6350708;22;20354;-85
2024/04/20 09:42:17;;;;;;;19.23;11.88;;;7.70;99.90;;;;;;6262193;22;19993;-85
2024/04/20 09:45:14;;;;;;;11.38;7.28;;;7.50;99.90;;;;;;6132301;22;20826;-85
2024/04/20 09:51:45;;;;;;;26.35;13.38;;;7.30;99.90;;;;;;6195120;22;20012;-85
2024/04/20 09:54:26;;;;;;;37.60;16.05;;;7.30;99.90;;;;;;6021135;23;20082;-85
2024/04/20 09:57:34;;;;;;;;;;;;;;;;;;;;;
2024/04/20 10:04:36;;;;;;;17.08;11.23;;;7.50;99.90;;;;;;6067450;23;20506;-85
2024/04/20 10:07:34;;;;;;;;;;;;;;;;;;;;;
2024/04/20 10:17:30;;;;;;;;;;;;;;;;;;;;;
2024/04/20 10:20:28;;;;;;;16.15;10.52;;;7.30;99.90;;;;;;6141856;23;20715;-85
2024/04/20 10:26:53;;;;;;;13.20;9.15;;;7.40;99.90;;;;;;6078012;23;20419;-85
2024/04/20 10:29:54;;;;;;;10.18;8.23;;;7.40;99.90;;;;;;6043346;23;20391;-85
2024/04/20 10:33:25;;;;;;;18.48;12.20;;;7.50;99.90;;;;;;6197266;22;19996;-85
2024/04/20 10:39:38;;;;;;;;;;;;;;;;;;;;;
2024/04/20 10:42:47;;;;;;;36.58;25.77;;;7.70;99.90;;;;;;6362394;22;19995;-85
2024/04/20 10:45:36;;;;;;;34.55;17.85;;;7.80;99.90;;;;;;6361073;22;20015;-85
2024/04/20 10:49:15;;;;;;;13.93;8.27;;;7.80;99.90;;;;;;6253909;22;20017;-85
2024/04/20 10:52:15;;;;;;;;;;;;;;;;;;;;;
2024/04/20 10:54:58;;;;;;;14.32;8.80;;;8.00;99.90;;;;;;6351429;22;20021;-85
2024/04/20 10:57:30;;;;;;;10.13;7.68;;;8.10;99.90;;;;;;6381780;22;20013;-85
2024/04/20 11:03:13;;;;;;;38.78;20.33;;;7.90;99.90;;;;;;6283281;22;20351;-85
2024/04/20 11:06:30;;;;;;;39.83;19.95;;;8.00;99.90;;;;;;6252462;22;20005;-84
2024/04/20 11:09:50;;;;;;;;;;;;;;;;;;;;;
2024/04/20 11:12:36;;;;;;;20.05;9.50;;;8.30;99.90;;;;;;6291816;22;20028;-85
2024/04/20 11:18:46;;;;;;;;;;;;;;;;;;;;;
2024/04/20 11:21:57;;;;;;;23.15;11.40;;;8.60;99.90;;;;;;6302269;22;20000;-85
2024/04/20 11:28:00;;;;;;;41.78;26.08;;;8.90;99.90;;;;;;6164708;22;20100;-85
2024/04/20 11:37:50;;;;;;;;;;;;;;;;;;;;;
2024/04/20 11:40:54;;;;;;;4.93;3.85;;;8.50;99.90;;;;;;5955301;23;20009;-84
2024/04/20 11:46:58;;;;;;;6.78;3.97;;;8.30;99.90;;;;;;6107754;23;20003;-84
2024/04/20 11:59:52;;;;;;;60.05;28.85;;;8.30;99.90;;;;;;6321406;22;20382;-85
2024/04/20 12:03:03;;;;;;;;;;;;;;;;;;;;;
2024/04/20 12:09:34;;;;;;;;;;;;;;;;;;;;;
2024/04/20 12:16:20;;;;;;;;;;;;;;;;;;;;;
2024/04/20 12:19:51;;;;;;;;;;;;;;;;;;;;;
2024/04/20 12:26:32;;;;;;;;;;;;;;;;;;;;;
2024/04/20 12:29:47;;;;;;;67.90;27.30;;;8.20;99.90;;;;;;5850226;24;20041;-85
2024/04/20 12:33:19;;;;;;;;;;;;;;;;;;;;;
2024/04/20 12:39:53;;;;;;;;;;;;;;;;;;;;;
2024/04/20 12:43:21;;;;;;;17.02;10.23;;;7.60;99.90;;;;;;5793503;24;20008;-85
2024/04/20 12:53:10;;;;;;;;;;;;;;;;;;;;;
2024/04/20 12:56:31;;;;;;;;;;;;;;;;;;;;;
2024/04/20 12:59:17;;;;;;;4.90;4.40;;;6.70;99.90;;;;;;6226533;22;20022;-86
2024/04/20 13:02:17;;;;;;;11.70;7.05;;;6.70;99.90;;;;;;6314176;22;20452;-86
2024/04/20 13:05:26;;;;;;;;;;;;;;;;;;;;;
2024/04/20 13:13:04;;;;;;;;;;;;;;;;;;;;;
2024/04/20 13:16:49;;;;;;;;;;;;;;;;;;;;;
2024/04/20 18:07:06;;;;;;;;;;;;;;;;;;;;;
2024/04/20 22:04:41;;;;;;;9.02;4.70;;;2.90;99.90;;;;;;6468469;22;20005;-84
2024/04/20 22:11:27;;;;;;;;;;;;;;;;;;;;;
2024/04/20 22:21:17;;;;;;;7.75;4.13;;;2.80;99.90;;;;;;5809394;24;20027;-84
2024/04/20 22:24:46;;;;;;;;;;;;;;;;;;;;;
2024/04/20 22:31:29;;;;;;;;;;;;;;;;;;;;;
2024/04/20 22:45:08;;;;;;;;;;;;;;;;;;;;;
2024/04/20 22:51:09;;;;;;;16.47;5.97;;;2.40;99.90;;;;;;6491854;22;20002;-84
2024/04/20 22:54:22;;;;;;;;;;;;;;;;;;;;;
2024/04/20 23:00:45;;;;;;;3.55;3.25;;;2.40;99.90;;;;;;6161539;23;20035;-84
2024/04/20 23:03:46;;;;;;;;;;;;;;;;;;;;;
2024/04/20 23:24:21;;;;;;;7.60;4.40;;;2.20;99.90;;;;;;5860876;23;20462;-84
2024/04/20 23:37:44;;;;;;;9.60;5.72;;;2.10;99.90;;;;;;5957684;23;20008;-84
2024/04/20 23:40:51;;;;;;;;;;;;;;;;;;;;;
2024/04/20 23:43:54;;;;;;;7.22;4.47;;;2.30;99.90;;;;;;5958812;23;20140;-83
2024/04/20 23:47:15;;;;;;;;;;;;;;;;;;;;;
